createdAt,value
2019-01-20T00:02:02.343Z,3.83
2019-01-20T00:04:30.765Z,2.60
2019-01-20T00:06:59.183Z,5.47
2019-01-20T00:09:27.660Z,3.53
2019-01-20T00:11:56.175Z,5.27
2019-01-20T00:14:24.640Z,5.03
2019-01-20T00:16:53.100Z,4.33
2019-01-20T00:19:21.518Z,5.10
2019-01-20T00:21:51.367Z,2.93
2019-01-20T00:24:19.922Z,4.70
2019-01-20T00:26:48.383Z,5.23
2019-01-20T00:29:16.807Z,4.60
2019-01-20T00:31:45.278Z,4.23
2019-01-20T00:34:13.760Z,4.40
2019-01-20T00:36:42.310Z,3.70
2019-01-20T00:39:10.827Z,4.47
2019-01-20T00:41:39.343Z,4.70
2019-01-20T00:44:07.903Z,4.97
2019-01-20T00:46:36.327Z,5.17
2019-01-20T00:49:04.803Z,3.17
2019-01-20T00:51:33.518Z,4.83
2019-01-20T00:54:02.178Z,4.23
2019-01-20T00:56:30.620Z,5.70
2019-01-20T00:58:59.049Z,4.67
2019-01-20T01:01:27.569Z,2.67
2019-01-20T01:03:55.987Z,3.63
2019-01-20T01:06:24.453Z,4.47
2019-01-20T01:08:52.871Z,5.13
2019-01-20T01:11:21.319Z,4.17
2019-01-20T01:13:49.731Z,4.07
2019-01-20T01:16:18.175Z,4.13
2019-01-20T01:18:46.622Z,4.50
2019-01-20T01:21:15.055Z,5.50
2019-01-20T01:23:43.498Z,4.40
2019-01-20T01:26:11.947Z,4.27
2019-01-20T01:28:40.689Z,4.20
2019-01-20T01:31:09.423Z,4.13
2019-01-20T01:33:37.860Z,3.60
2019-01-20T01:36:06.373Z,3.20
2019-01-20T01:38:34.897Z,4.73
2019-01-20T01:41:03.355Z,3.67
2019-01-20T01:43:31.793Z,3.77
2019-01-20T01:46:00.294Z,3.30
2019-01-20T01:48:28.724Z,4.80
2019-01-20T01:50:57.157Z,4.23
2019-01-20T01:53:25.713Z,3.80
2019-01-20T01:55:54.197Z,3.73
2019-01-20T01:58:22.647Z,5.90
2019-01-20T02:00:51.075Z,4.83
2019-01-20T02:03:19.610Z,4.23
2019-01-20T02:05:48.040Z,4.87
2019-01-20T02:08:16.454Z,3.87
2019-01-20T02:10:44.906Z,3.40
2019-01-20T02:13:13.330Z,3.90
2019-01-20T02:15:41.779Z,4.47
2019-01-20T02:18:10.343Z,4.37
2019-01-20T02:20:38.758Z,3.20
2019-01-20T02:23:07.207Z,4.33
2019-01-20T02:25:35.638Z,3.93
2019-01-20T02:28:04.139Z,3.57
2019-01-20T02:30:32.567Z,5.17
2019-01-20T02:33:01.019Z,3.90
2019-01-20T02:35:29.451Z,5.87
2019-01-20T02:37:58.016Z,4.03
2019-01-20T02:40:26.438Z,4.00
2019-01-20T02:42:54.954Z,2.93
2019-01-20T02:45:23.857Z,3.70
2019-01-20T02:47:52.315Z,4.43
2019-01-20T02:50:20.732Z,2.93
2019-01-20T02:52:49.217Z,3.57
2019-01-20T02:55:17.664Z,2.47
2019-01-20T02:57:46.083Z,2.43
2019-01-20T03:00:21.995Z,1.87
2019-01-20T03:02:50.499Z,2.60
2019-01-20T03:05:20.094Z,3.67
2019-01-20T03:07:48.645Z,4.03
2019-01-20T03:10:17.460Z,2.70
2019-01-20T03:12:45.929Z,3.00
2019-01-20T03:15:15.315Z,4.67
2019-01-20T03:17:43.765Z,3.57
2019-01-20T03:20:15.285Z,3.90
2019-01-20T03:22:43.708Z,3.77
2019-01-20T03:25:14.571Z,2.00
2019-01-20T03:27:43.065Z,4.40
2019-01-20T03:30:17.034Z,3.37
2019-01-20T03:32:45.457Z,3.00
2019-01-20T03:35:15.735Z,3.87
2019-01-20T03:37:44.156Z,2.50
2019-01-20T03:40:15.344Z,3.20
2019-01-20T03:42:43.790Z,4.10
2019-01-20T03:45:14.887Z,3.00
2019-01-20T03:47:43.370Z,4.03
2019-01-20T03:50:13.650Z,1.67
2019-01-20T03:52:42.084Z,4.60
2019-01-20T03:55:13.046Z,4.17
2019-01-20T03:57:41.534Z,2.97
2019-01-20T04:00:15.279Z,2.97
2019-01-20T04:02:44.323Z,2.97
2019-01-20T04:05:12.888Z,4.63
2019-01-20T04:07:41.335Z,2.70
2019-01-20T04:10:13.003Z,3.93
2019-01-20T04:12:41.520Z,2.03
2019-01-20T04:15:11.682Z,3.50
2019-01-20T04:17:40.203Z,3.63
2019-01-20T04:20:09.955Z,4.40
2019-01-20T04:22:38.408Z,3.10
2019-01-20T04:25:09.969Z,4.60
2019-01-20T04:27:38.478Z,3.40
2019-01-20T04:30:09.336Z,2.30
2019-01-20T04:32:37.764Z,4.50
2019-01-20T04:35:08.046Z,2.20
2019-01-20T04:37:36.467Z,2.50
2019-01-20T04:40:07.992Z,2.80
2019-01-20T04:42:36.399Z,1.00
2019-01-20T04:45:07.900Z,3.40
2019-01-20T04:47:36.360Z,2.73
2019-01-20T04:50:16.263Z,4.30
2019-01-20T04:52:44.749Z,3.87
2019-01-20T04:55:14.610Z,4.13
2019-01-20T04:57:44.709Z,4.10
2019-01-20T05:00:15.976Z,2.27
2019-01-20T05:02:44.410Z,4.17
2019-01-20T05:05:12.987Z,5.00
2019-01-20T05:07:41.484Z,2.77
2019-01-20T05:10:13.008Z,4.77
2019-01-20T05:12:41.504Z,3.90
2019-01-20T05:15:12.597Z,3.90
2019-01-20T05:17:41.110Z,3.47
2019-01-20T05:20:10.893Z,3.53
2019-01-20T05:22:39.327Z,4.13
2019-01-20T05:25:09.818Z,2.30
2019-01-20T05:27:38.242Z,3.27
2019-01-20T05:30:12.319Z,4.20
2019-01-20T05:32:40.780Z,3.33
2019-01-20T05:35:10.241Z,4.10
2019-01-20T05:37:38.847Z,3.40
2019-01-20T05:40:18.292Z,4.60
2019-01-20T05:42:47.054Z,3.97
2019-01-20T05:45:17.550Z,3.73
2019-01-20T05:47:46.063Z,2.53
2019-01-20T05:50:15.152Z,4.73
2019-01-20T05:52:43.567Z,4.80
2019-01-20T05:55:14.479Z,2.50
2019-01-20T05:57:43.061Z,3.17
2019-01-20T06:00:19.926Z,3.77
2019-01-20T06:02:48.368Z,3.93
2019-01-20T06:05:16.895Z,3.53
2019-01-20T06:07:45.432Z,4.85
2019-01-20T06:10:14.508Z,4.50
2019-01-20T06:12:42.982Z,3.47
2019-01-20T06:15:16.896Z,2.57
2019-01-20T06:17:45.404Z,3.93
2019-01-20T06:20:14.575Z,3.27
2019-01-20T06:22:43.097Z,3.77
2019-01-20T06:25:11.626Z,4.20
2019-01-20T06:27:40.121Z,4.70
2019-01-20T06:30:17.293Z,3.70
2019-01-20T06:32:45.775Z,4.43
2019-01-20T06:35:14.224Z,2.37
2019-01-20T06:37:42.715Z,4.40
2019-01-20T06:40:11.279Z,4.37
2019-01-20T06:42:39.772Z,4.83
2019-01-20T06:45:10.895Z,5.20
2019-01-20T06:47:39.374Z,4.93
2019-01-20T06:50:10.710Z,5.73
2019-01-20T06:52:39.225Z,5.33
2019-01-20T06:55:09.485Z,5.07
2019-01-20T06:57:37.931Z,4.60
2019-01-20T07:00:12.281Z,4.63
2019-01-20T07:02:40.750Z,4.83
2019-01-20T07:05:09.915Z,5.30
2019-01-20T07:07:38.333Z,5.07
2019-01-20T07:10:09.774Z,5.13
2019-01-20T07:12:38.196Z,6.17
2019-01-20T07:15:09.715Z,5.20
2019-01-20T07:17:38.144Z,5.57
2019-01-20T07:20:09.631Z,5.90
2019-01-20T07:22:38.320Z,5.77
2019-01-20T07:25:08.426Z,5.93
2019-01-20T07:27:36.865Z,7.00
2019-01-20T07:30:08.524Z,6.97
2019-01-20T07:32:36.944Z,5.60
2019-01-20T07:35:07.332Z,5.20
2019-01-20T07:37:35.829Z,5.37
2019-01-20T07:40:07.086Z,5.57
2019-01-20T07:42:35.553Z,5.80
2019-01-20T07:45:06.487Z,6.63
2019-01-20T07:47:34.955Z,6.93
2019-01-20T07:50:05.422Z,6.37
2019-01-20T07:52:33.881Z,7.23
2019-01-20T07:55:02.385Z,6.20
2019-01-20T07:57:30.863Z,7.50
2019-01-20T07:59:59.298Z,7.40
2019-01-20T08:02:27.717Z,9.43
2019-01-20T08:04:56.168Z,9.20
2019-01-20T08:07:24.598Z,6.80
2019-01-20T08:09:53.043Z,8.60
2019-01-20T08:12:23.536Z,8.30
2019-01-20T08:14:51.786Z,6.30
2019-01-20T08:17:20.346Z,6.30
2019-01-20T08:19:48.824Z,6.17
2019-01-20T08:22:17.282Z,6.77
2019-01-20T08:24:45.713Z,6.50
2019-01-20T08:27:14.176Z,6.33
2019-01-20T08:29:42.732Z,6.03
2019-01-20T08:32:11.151Z,6.13
2019-01-20T08:34:39.608Z,7.10
2019-01-20T08:37:08.038Z,8.50
2019-01-20T08:39:36.484Z,8.30
2019-01-20T08:42:04.956Z,9.03
2019-01-20T08:44:33.589Z,8.23
2019-01-20T08:47:03.526Z,9.18
2019-01-20T08:49:32.029Z,9.30
2019-01-20T08:52:00.515Z,9.77
2019-01-20T08:54:29.014Z,10.07
2019-01-20T08:56:57.571Z,10.87
2019-01-20T08:59:26.022Z,11.27
2019-01-20T09:01:54.483Z,11.13
2019-01-20T09:04:23.278Z,9.57
2019-01-20T09:06:51.828Z,8.47
2019-01-20T09:09:20.310Z,6.70
2019-01-20T09:11:48.835Z,5.63
2019-01-20T09:14:17.390Z,6.43
2019-01-20T09:16:45.998Z,6.97
2019-01-20T09:19:14.537Z,7.27
2019-01-20T09:21:43.226Z,5.50
2019-01-20T09:24:11.795Z,6.03
2019-01-20T09:26:40.495Z,6.50
2019-01-20T09:29:08.954Z,7.20
2019-01-20T09:31:37.456Z,6.93
2019-01-20T09:34:06.067Z,6.70
2019-01-20T09:36:34.710Z,7.57
2019-01-20T09:39:04.783Z,7.17
2019-01-20T09:41:33.557Z,6.10
2019-01-20T09:44:04.014Z,6.47
2019-01-20T09:46:32.774Z,6.40
2019-01-20T09:49:01.219Z,6.60
2019-01-20T09:51:30.638Z,7.43
2019-01-20T09:54:00.753Z,6.90
2019-01-20T09:56:30.012Z,7.57
2019-01-20T09:58:58.447Z,7.00
2019-01-20T10:01:26.899Z,7.50
2019-01-20T10:03:55.398Z,6.50
2019-01-20T10:06:23.860Z,6.93
2019-01-20T10:08:52.280Z,7.73
2019-01-20T10:11:20.758Z,4.53
2019-01-20T10:13:54.880Z,5.77
2019-01-20T10:16:22.235Z,6.37
2019-01-20T10:18:51.118Z,6.63
2019-01-20T10:21:20.131Z,6.20
2019-01-20T10:23:48.727Z,7.13
2019-01-20T10:26:18.843Z,8.27
2019-01-20T10:28:47.310Z,7.17
2019-01-20T10:31:15.827Z,5.57
2019-01-20T10:33:44.833Z,5.77
2019-01-20T10:36:13.758Z,6.47
2019-01-20T10:38:42.422Z,6.70
2019-01-20T10:41:11.958Z,7.67
2019-01-20T10:43:40.527Z,7.10
2019-01-20T10:46:09.019Z,7.13
2019-01-20T10:48:37.508Z,6.70
2019-01-20T10:51:06.002Z,6.90
2019-01-20T10:53:34.519Z,8.30
2019-01-20T10:56:02.963Z,7.90
2019-01-20T10:58:31.399Z,7.90
2019-01-20T11:00:59.838Z,7.00
2019-01-20T11:03:28.267Z,6.60
2019-01-20T11:05:56.795Z,7.63
2019-01-20T11:08:25.210Z,6.40
2019-01-20T11:10:53.663Z,8.07
2019-01-20T11:13:22.087Z,6.90
2019-01-20T11:15:50.555Z,8.20
2019-01-20T11:18:18.975Z,7.77
2019-01-20T11:20:47.470Z,6.70
2019-01-20T11:23:15.984Z,7.20
2019-01-20T11:25:44.476Z,6.60
2019-01-20T11:28:12.927Z,7.00
2019-01-20T11:30:41.555Z,7.57
2019-01-20T11:33:10.019Z,6.30
2019-01-20T11:35:38.490Z,7.73
2019-01-20T11:38:07.007Z,7.10
2019-01-20T11:40:35.453Z,7.27
2019-01-20T11:43:03.908Z,6.80
2019-01-20T11:45:32.396Z,6.83
2019-01-20T11:48:00.924Z,6.30
2019-01-20T11:50:29.510Z,6.83
2019-01-20T11:52:58.287Z,6.13
2019-01-20T11:55:26.799Z,6.93
2019-01-20T11:57:55.230Z,7.17
2019-01-20T12:00:29.106Z,6.07
2019-01-20T12:02:57.682Z,6.23
2019-01-20T12:05:26.177Z,6.03
2019-01-20T12:07:54.630Z,7.40
2019-01-20T12:10:23.209Z,6.93
2019-01-20T12:12:58.750Z,6.90
2019-01-20T12:15:27.218Z,6.23
2019-01-20T12:17:55.654Z,7.00
2019-01-20T12:20:24.258Z,6.27
2019-01-20T12:22:52.671Z,5.97
2019-01-20T12:25:21.559Z,6.10
2019-01-20T12:27:49.976Z,5.90
2019-01-20T12:30:27.063Z,6.63
2019-01-20T12:32:55.487Z,7.23
2019-01-20T12:35:23.930Z,7.30
2019-01-20T12:37:52.647Z,4.93
2019-01-20T12:40:29.659Z,6.80
2019-01-20T12:42:58.414Z,6.87
2019-01-20T12:45:26.862Z,6.73
2019-01-20T12:47:55.303Z,6.43
2019-01-20T12:50:23.717Z,6.83
2019-01-20T12:52:52.255Z,6.20
2019-01-20T12:55:20.915Z,5.40
2019-01-20T12:57:49.353Z,4.63
2019-01-20T13:00:20.960Z,6.10
2019-01-20T13:02:49.516Z,5.87
2019-01-20T13:05:18.214Z,7.07
2019-01-20T13:07:46.652Z,6.50
2019-01-20T13:10:19.296Z,6.67
2019-01-20T13:12:48.110Z,6.93
2019-01-20T13:15:21.556Z,5.40
2019-01-20T13:17:50.125Z,5.50
2019-01-20T13:20:23.689Z,5.93
2019-01-20T13:22:52.163Z,6.10
2019-01-20T13:25:22.707Z,6.20
2019-01-20T13:27:51.129Z,6.80
2019-01-20T13:30:25.216Z,6.43
2019-01-20T13:32:53.647Z,6.50
2019-01-20T13:35:22.745Z,6.47
2019-01-20T13:38:00.179Z,6.10
2019-01-20T13:40:34.694Z,6.53
2019-01-20T13:43:03.439Z,6.50
2019-01-20T13:45:31.827Z,6.70
2019-01-20T13:48:00.279Z,8.93
2019-01-20T13:50:28.695Z,7.83
2019-01-20T13:52:57.199Z,7.00
2019-01-20T13:55:25.668Z,6.90
2019-01-20T13:57:54.190Z,6.60
2019-01-20T14:00:24.150Z,6.30
2019-01-20T14:02:52.707Z,6.47
2019-01-20T14:05:21.227Z,7.30
2019-01-20T14:07:50.231Z,6.90
2019-01-20T14:10:21.415Z,6.27
2019-01-20T14:12:49.839Z,6.70
2019-01-20T14:15:18.296Z,30.37
2019-01-20T14:17:46.809Z,7.20
2019-01-20T14:20:18.348Z,6.60
2019-01-20T14:22:46.931Z,5.50
2019-01-20T14:25:20.868Z,6.50
2019-01-20T14:27:49.286Z,7.53
2019-01-20T14:30:19.985Z,7.10
2019-01-20T14:32:48.551Z,6.27
2019-01-20T14:35:17.107Z,6.33
2019-01-20T14:37:45.547Z,7.67
2019-01-20T14:40:16.435Z,8.37
2019-01-20T14:42:45.000Z,7.90
2019-01-20T14:45:18.218Z,8.13
2019-01-20T14:47:46.799Z,7.43
2019-01-20T14:50:26.235Z,9.20
2019-01-20T14:52:54.784Z,7.07
2019-01-20T14:55:23.795Z,7.87
2019-01-20T14:57:52.224Z,7.33
2019-01-20T15:00:29.960Z,7.87
2019-01-20T15:02:58.447Z,7.13
2019-01-20T15:05:27.011Z,7.27
2019-01-20T15:07:55.709Z,7.30
2019-01-20T15:10:24.194Z,7.83
2019-01-20T15:12:52.794Z,9.27
2019-01-20T15:15:26.816Z,7.60
2019-01-20T15:17:55.252Z,7.23
2019-01-20T15:20:23.778Z,9.13
2019-01-20T15:22:52.614Z,7.57
2019-01-20T15:25:21.457Z,8.10
2019-01-20T15:27:50.155Z,10.57
2019-01-20T15:30:24.648Z,10.60
2019-01-20T15:32:53.935Z,9.87
2019-01-20T15:35:22.475Z,9.73
2019-01-20T15:37:50.975Z,9.10
2019-01-20T15:40:21.264Z,8.10
2019-01-20T15:42:49.830Z,8.07
2019-01-20T15:45:20.317Z,8.13
2019-01-20T15:47:48.798Z,9.43
2019-01-20T15:50:25.326Z,8.23
2019-01-20T15:52:53.855Z,7.67
2019-01-20T15:55:22.528Z,8.20
2019-01-20T15:57:50.980Z,9.40
2019-01-20T16:00:21.899Z,8.90
2019-01-20T16:02:50.427Z,8.27
2019-01-20T16:05:18.980Z,9.07
2019-01-20T16:07:47.460Z,9.03
2019-01-20T16:10:17.196Z,10.83
2019-01-20T16:12:46.190Z,8.60
2019-01-20T16:15:24.332Z,10.30
2019-01-20T16:17:51.861Z,10.20
2019-01-20T16:20:20.387Z,10.50
2019-01-20T16:22:48.874Z,11.20
2019-01-20T16:25:31.097Z,11.10
2019-01-20T16:27:59.543Z,11.07
2019-01-20T16:30:35.831Z,11.43
2019-01-20T16:33:04.666Z,9.83
2019-01-20T16:35:33.114Z,12.77
2019-01-20T16:38:02.130Z,9.93
2019-01-20T16:40:30.707Z,12.13
2019-01-20T16:42:59.159Z,11.17
2019-01-20T16:45:32.805Z,10.70
2019-01-20T16:48:00.782Z,10.07
2019-01-20T16:50:29.231Z,11.97
2019-01-20T16:52:57.799Z,11.10
2019-01-20T16:55:27.219Z,12.90
2019-01-20T16:57:55.745Z,11.37
2019-01-20T17:00:27.269Z,10.27
2019-01-20T17:02:55.804Z,8.70
2019-01-20T17:05:26.698Z,8.10
2019-01-20T17:07:54.476Z,8.27
2019-01-20T17:10:25.533Z,8.37
2019-01-20T17:12:54.102Z,8.50
2019-01-20T17:15:24.990Z,9.03
2019-01-20T17:17:53.418Z,9.80
2019-01-20T17:20:21.869Z,11.20
2019-01-20T17:22:50.459Z,12.00
2019-01-20T17:25:19.127Z,12.47
2019-01-20T17:27:47.659Z,14.17
2019-01-20T17:30:19.159Z,15.17
2019-01-20T17:32:47.588Z,16.70
2019-01-20T17:35:16.202Z,18.93
2019-01-20T17:37:44.696Z,17.20
2019-01-20T17:40:15.859Z,17.33
2019-01-20T17:42:44.306Z,15.10
2019-01-20T17:45:15.795Z,12.37
2019-01-20T17:47:44.223Z,12.80
2019-01-20T17:50:15.744Z,13.90
2019-01-20T17:52:44.187Z,13.40
2019-01-20T17:55:12.846Z,19.03
2019-01-20T17:57:41.339Z,22.43
2019-01-20T18:00:13.222Z,19.23
2019-01-20T18:02:41.770Z,22.87
2019-01-20T18:05:13.004Z,26.90
2019-01-20T18:07:41.458Z,29.43
2019-01-20T18:10:12.871Z,29.50
2019-01-20T18:12:41.610Z,28.70
2019-01-20T18:15:15.943Z,30.03
2019-01-20T18:17:46.151Z,25.90
2019-01-20T18:20:20.155Z,22.53
2019-01-20T18:22:48.962Z,21.07
2019-01-20T18:25:19.051Z,19.47
2019-01-20T18:27:47.879Z,21.67
2019-01-20T18:30:21.691Z,21.90
2019-01-20T18:32:50.138Z,22.60
2019-01-20T18:35:19.039Z,21.70
2019-01-20T18:37:47.900Z,22.50
2019-01-20T18:40:21.273Z,23.80
2019-01-20T18:42:50.143Z,23.27
2019-01-20T18:45:32.850Z,23.33
2019-01-20T18:48:01.351Z,25.57
2019-01-20T18:50:34.544Z,21.07
2019-01-20T18:53:03.038Z,20.40
2019-01-20T18:55:31.466Z,18.60
2019-01-20T18:57:59.929Z,18.73
2019-01-20T19:00:30.923Z,16.13
2019-01-20T19:02:59.593Z,13.17
2019-01-20T19:05:28.233Z,12.33
2019-01-20T19:07:56.758Z,12.30
2019-01-20T19:10:25.193Z,14.53
2019-01-20T19:12:53.667Z,14.00
2019-01-20T19:15:23.354Z,13.53
2019-01-20T19:17:52.055Z,12.93
2019-01-20T19:20:25.261Z,11.93
2019-01-20T19:22:55.523Z,11.57
2019-01-20T19:25:24.057Z,12.30
2019-01-20T19:27:52.488Z,12.33
2019-01-20T19:30:28.689Z,11.87
2019-01-20T19:32:57.313Z,12.17
2019-01-20T19:35:26.207Z,11.80
2019-01-20T19:37:54.661Z,11.77
2019-01-20T19:40:23.150Z,12.07
2019-01-20T19:42:51.704Z,13.03
2019-01-20T19:45:21.258Z,12.60
2019-01-20T19:47:49.839Z,14.13
2019-01-20T19:50:18.773Z,12.93
2019-01-20T19:52:47.461Z,14.67
2019-01-20T19:55:19.145Z,14.50
2019-01-20T19:57:47.951Z,14.00
2019-01-20T20:00:19.112Z,11.90
2019-01-20T20:02:47.792Z,13.73
2019-01-20T20:05:17.951Z,12.37
2019-01-20T20:07:46.976Z,12.00
2019-01-20T20:10:18.227Z,12.47
2019-01-20T20:12:46.811Z,14.67
2019-01-20T20:15:18.034Z,14.60
2019-01-20T20:17:46.580Z,14.43
2019-01-20T20:20:16.826Z,12.60
2019-01-20T20:22:45.579Z,13.93
2019-01-20T20:25:16.283Z,13.00
2019-01-20T20:27:44.954Z,14.27
2019-01-20T20:30:19.499Z,13.43
2019-01-20T20:32:48.200Z,12.53
2019-01-20T20:35:16.872Z,12.77
2019-01-20T20:37:45.416Z,12.37
2019-01-20T20:40:19.144Z,13.07
2019-01-20T20:42:47.751Z,13.07
2019-01-20T20:45:21.755Z,11.83
2019-01-20T20:47:50.227Z,12.50
2019-01-20T20:50:18.934Z,11.67
2019-01-20T20:52:47.602Z,16.80
2019-01-20T20:55:16.394Z,13.03
2019-01-20T20:57:45.099Z,16.97
2019-01-20T21:00:19.710Z,17.50
2019-01-20T21:02:48.150Z,13.27
2019-01-20T21:05:16.995Z,14.13
2019-01-20T21:07:46.299Z,12.80
2019-01-20T21:10:16.703Z,12.53
2019-01-20T21:12:45.516Z,14.40
2019-01-20T21:15:15.918Z,17.70
2019-01-20T21:17:48.295Z,17.90
2019-01-20T21:20:24.429Z,16.37
2019-01-20T21:22:53.076Z,13.40
2019-01-20T21:25:21.923Z,14.27
2019-01-20T21:27:50.732Z,14.50
2019-01-20T21:30:21.846Z,13.53
2019-01-20T21:32:50.314Z,15.70
2019-01-20T21:35:18.886Z,13.63
2019-01-20T21:37:47.314Z,14.77
2019-01-20T21:40:17.714Z,13.50
2019-01-20T21:42:46.412Z,13.43
2019-01-20T21:45:16.854Z,16.10
2019-01-20T21:47:45.711Z,16.50
2019-01-20T21:50:20.034Z,13.50
2019-01-20T21:52:49.010Z,15.00
2019-01-20T21:55:17.519Z,16.70
2019-01-20T21:57:46.024Z,13.97
2019-01-20T22:00:17.274Z,14.63
2019-01-20T22:02:45.807Z,14.33
2019-01-20T22:05:14.335Z,15.47
2019-01-20T22:07:42.839Z,14.27
2019-01-20T22:10:13.915Z,15.77
2019-01-20T22:12:42.343Z,13.73
2019-01-20T22:15:12.041Z,14.87
2019-01-20T22:17:40.626Z,14.27
2019-01-20T22:20:14.399Z,15.63
2019-01-20T22:22:42.900Z,16.30
2019-01-20T22:25:12.329Z,14.53
2019-01-20T22:27:40.964Z,15.17
2019-01-20T22:30:20.611Z,14.33
2019-01-20T22:32:49.127Z,15.67
2019-01-20T22:35:17.627Z,14.00
2019-01-20T22:37:46.124Z,14.73
2019-01-20T22:40:16.627Z,14.77
2019-01-20T22:42:45.212Z,15.17
2019-01-20T22:45:16.251Z,15.20
2019-01-20T22:47:44.712Z,15.23
2019-01-20T22:50:15.252Z,17.03
2019-01-20T22:52:43.750Z,17.07
2019-01-20T22:55:14.252Z,16.20
2019-01-20T22:57:42.886Z,17.27
2019-01-20T23:00:14.427Z,17.10
2019-01-20T23:02:42.883Z,16.97
2019-01-20T23:05:11.378Z,16.87
2019-01-20T23:07:39.910Z,16.80
2019-01-20T23:10:08.363Z,16.40
2019-01-20T23:12:36.792Z,16.07
2019-01-20T23:15:08.592Z,16.90
2019-01-20T23:17:37.012Z,16.23
2019-01-20T23:20:08.539Z,15.50
2019-01-20T23:22:36.971Z,16.27
2019-01-20T23:25:06.046Z,17.67
2019-01-20T23:27:34.613Z,17.00
2019-01-20T23:30:03.142Z,16.57
2019-01-20T23:32:31.611Z,16.10
2019-01-20T23:35:00.037Z,18.80
2019-01-20T23:37:28.494Z,18.17
2019-01-20T23:39:56.994Z,15.80
2019-01-20T23:42:25.434Z,20.70
2019-01-20T23:44:53.899Z,17.40
2019-01-20T23:47:22.326Z,17.40
2019-01-20T23:49:50.770Z,15.60
2019-01-20T23:52:19.219Z,15.73
2019-01-20T23:54:47.675Z,15.50
2019-01-20T23:57:16.190Z,17.50
2019-01-20T23:59:44.638Z,16.93
